Climax, Canada
Current Conditions -  °F | °C
As of 9:53 AM on Saturday 22 Nov 2014 (Local Time) from KHVR Reporting Station
Clear Clear  
Wind Chill: 36°   Ceiling: Unl
Heat Index: 44°   Visibility: 10mi
Dew Point: 34°   Wind: 17mph
Humidity: 68%   Direction: 230°SW
Pressure: 29.19"   Gusts: 26mph
Location:  49.2°N, 108.38°W
Report Text: KHVR 221553Z AUTO 23015G23KT 10SM CLR 07/01 A2919 RMK AO2 SLP896 T00670011
Loading
Personal Weather Stations






























Interactive Weather Map New forecast layout! Learn more

10-Day Weather Forecast

Advertisements
Track Severe Weather on mobile